Time;durP1;ratioP1;P1;durP2;ratioP2;P2;SDS_P1;SDS_P2;PMS_P1;PMS_P2;Temp;Humidity;BMP_temperature;BMP_pressure;BME280_temperature;BME280_humidity;BME280_pressure;Samples;Min_cycle;Max_cycle;Signal;HPM_P1;HPM_P2
2024/04/10 00:00:12;;;;;;;0.38;0.38;;;;;;;26.89;26.59;100248.72;7389172;19;20010;-81
2024/04/10 00:02:39;;;;;;;0.32;0.32;;;;;;;27.64;25.84;100255.25;7390446;19;20461;-81
2024/04/10 00:05:07;;;;;;;0.52;0.52;;;;;;;27.77;25.89;100264.28;7388025;19;20031;-81
2024/04/10 00:07:33;;;;;;;0.75;0.75;;;;;;;27.91;25.75;100256.16;7388441;19;20026;-81
2024/04/10 00:09:59;;;;;;;2.22;0.77;;;;;;;28.29;25.40;100245.06;7392693;19;20018;-81
2024/04/10 00:12:25;;;;;;;0.50;0.50;;;;;;;27.91;25.58;100256.16;7392777;19;20014;-81
2024/04/10 00:14:51;;;;;;;0.20;0.20;;;;;;;27.81;25.75;100246.69;7387643;19;20606;-80
2024/04/10 00:17:17;;;;;;;0.45;0.45;;;;;;;27.72;25.98;100250.25;7389296;19;20360;-81
2024/04/10 00:19:50;;;;;;;14.23;1.30;;;;;;;27.43;26.25;100252.00;7388240;19;20085;-81
2024/04/10 00:22:16;;;;;;;19.30;0.57;;;;;;;27.52;25.95;100252.13;7392479;19;20035;-81
2024/04/10 00:24:42;;;;;;;3.92;1.50;;;;;;;27.75;25.86;100249.81;7387631;19;20029;-80
2024/04/10 00:27:08;;;;;;;0.52;0.52;;;;;;;27.75;25.89;100246.94;7387259;19;20018;-81
2024/04/10 00:29:34;;;;;;;0.38;0.38;;;;;;;26.66;26.58;100250.88;7390411;19;20021;-80
2024/04/10 00:32:00;;;;;;;3.22;0.70;;;;;;;26.21;27.08;100253.91;7390325;19;20019;-81
2024/04/10 00:34:26;;;;;;;0.50;0.43;;;;;;;25.88;27.24;100263.69;7397179;19;20018;-81
2024/04/10 00:36:52;;;;;;;3.30;0.85;;;;;;;25.82;27.46;100265.94;7389824;19;20026;-81
2024/04/10 00:39:18;;;;;;;0.30;0.30;;;;;;;25.71;27.65;100254.94;7389029;19;20018;-81
2024/04/10 00:41:44;;;;;;;0.10;0.10;;;;;;;25.72;27.19;100256.44;7389386;19;20029;-81
2024/04/10 00:44:10;;;;;;;0.50;0.50;;;;;;;25.94;27.01;100261.38;7393697;19;20463;-80
2024/04/10 00:46:37;;;;;;;1.58;1.48;;;;;;;26.63;26.70;100269.22;7389771;19;20111;-81
2024/04/10 00:49:03;;;;;;;15.10;2.15;;;;;;;26.75;26.60;100270.31;7394261;19;20006;-81
2024/04/10 00:51:30;;;;;;;0.40;0.40;;;;;;;25.88;27.36;100270.13;7390263;19;20049;-81
2024/04/10 00:53:58;;;;;;;0.50;0.50;;;;;;;25.69;27.63;100275.47;7390744;19;20018;-81
2024/04/10 00:56:24;;;;;;;10.85;0.68;;;;;;;25.89;27.27;100259.47;7388979;19;20096;-81
2024/04/10 00:58:50;;;;;;;0.38;0.38;;;;;;;25.66;27.54;100244.47;7386778;19;20011;-81
2024/04/10 01:01:16;;;;;;;0.50;0.50;;;;;;;26.18;26.87;100249.38;7389554;19;20036;-81
2024/04/10 01:03:43;;;;;;;1.88;0.90;;;;;;;25.85;26.99;100267.66;7389192;19;20015;-80
2024/04/10 01:06:10;;;;;;;0.57;0.57;;;;;;;25.83;27.25;100270.34;7389310;19;20472;-81
2024/04/10 01:08:37;;;;;;;0.40;0.40;;;;;;;25.98;27.23;100278.88;7387415;19;20010;-81
2024/04/10 01:11:05;;;;;;;0.40;0.40;;;;;;;26.37;26.75;100281.09;7388664;19;20485;-81
2024/04/10 01:13:33;;;;;;;0.30;0.30;;;;;;;26.11;27.02;100284.41;7390708;19;20045;-81
2024/04/10 01:15:59;;;;;;;0.70;0.70;;;;;;;25.91;27.38;100296.78;7390264;19;20015;-81
2024/04/10 01:18:25;;;;;;;0.65;0.65;;;;;;;26.20;27.33;100312.38;7393680;19;20015;-81
2024/04/10 01:20:52;;;;;;;8.60;0.90;;;;;;;26.30;26.63;100310.44;7393944;19;20137;-81
2024/04/10 01:23:18;;;;;;;0.40;0.40;;;;;;;26.23;26.84;100308.34;7394523;19;20018;-81
2024/04/10 01:25:45;;;;;;;1.67;1.08;;;;;;;26.23;26.44;100306.28;7395501;19;20029;-81
2024/04/10 01:28:11;;;;;;;0.47;0.47;;;;;;;26.23;26.70;100302.66;7395116;19;20015;-81
2024/04/10 01:30:37;;;;;;;0.40;0.40;;;;;;;26.48;26.61;100303.56;7395595;19;20019;-81
2024/04/10 01:33:04;;;;;;;0.10;0.10;;;;;;;26.50;26.48;100300.88;7395644;19;20124;-81
2024/04/10 01:35:30;;;;;;;0.30;0.30;;;;;;;26.48;26.66;100303.56;7395194;19;20471;-81
2024/04/10 01:37:56;;;;;;;1.00;0.85;;;;;;;26.46;26.62;100316.88;7393592;19;20022;-81
2024/04/10 01:40:23;;;;;;;0.30;0.30;;;;;;;26.21;26.65;100317.50;7390850;19;20540;-81
2024/04/10 01:42:49;;;;;;;0.30;0.30;;;;;;;26.17;26.79;100297.16;7393463;19;20042;-81
2024/04/10 01:45:16;;;;;;;0.43;0.43;;;;;;;26.18;26.79;100292.94;7395127;19;20585;-80
2024/04/10 01:47:42;;;;;;;12.25;1.02;;;;;;;26.30;26.74;100310.44;7392447;19;20078;-81
2024/04/10 01:50:08;;;;;;;0.30;0.30;;;;;;;26.44;26.65;100305.28;7396525;19;20483;-81
2024/04/10 01:52:35;;;;;;;0.30;0.30;;;;;;;26.42;27.05;100297.28;7395406;19;20014;-81
2024/04/10 01:55:02;;;;;;;0.40;0.40;;;;;;;26.40;26.69;100299.94;7395523;19;20031;-81
2024/04/10 01:57:28;;;;;;;0.40;0.40;;;;;;;26.39;26.95;100295.56;7393459;19;20403;-81
2024/04/10 01:59:54;;;;;;;0.85;0.73;;;;;;;26.47;26.84;100289.81;7392680;19;20472;-81
2024/04/10 02:02:20;;;;;;;0.45;0.45;;;;;;;26.70;26.72;100282.72;7394229;19;20074;-81
2024/04/10 02:04:46;;;;;;;0.25;0.25;;;;;;;26.68;26.45;100293.94;7395647;19;20052;-81
2024/04/10 02:07:12;;;;;;;0.70;0.70;;;;;;;26.62;26.37;100278.34;7394311;19;20026;-81
2024/04/10 02:09:39;;;;;;;0.65;0.63;;;;;;;26.11;27.03;100285.19;7393812;19;20156;-81
2024/04/10 02:12:05;;;;;;;0.40;0.40;;;;;;;25.84;27.33;100286.09;7393444;19;20015;-81
2024/04/10 02:14:32;;;;;;;0.47;0.47;;;;;;;26.08;26.90;100276.94;7392098;19;20022;-81
2024/04/10 02:16:58;;;;;;;0.40;0.40;;;;;;;26.15;26.77;100287.63;7393127;19;20373;-81
2024/04/10 02:19:24;;;;;;;0.55;0.55;;;;;;;26.23;26.56;100289.13;7396773;19;20090;-81
2024/04/10 02:21:52;;;;;;;0.60;0.60;;;;;;;26.16;26.92;100297.72;7393929;19;20022;-81
2024/04/10 02:24:19;;;;;;;0.60;0.60;;;;;;;26.33;26.93;100297.88;7394630;19;20018;-81
2024/04/10 02:26:45;;;;;;;2.05;1.85;;;;;;;26.27;26.97;100295.22;7392084;19;20373;-81
2024/04/10 02:29:12;;;;;;;0.35;0.35;;;;;;;26.41;26.38;100298.63;7393616;19;20110;-81
2024/04/10 02:31:39;;;;;;;1.80;0.60;;;;;;;26.38;26.44;100290.44;7392996;19;20048;-81
2024/04/10 02:34:06;;;;;;;14.02;1.00;;;;;;;26.33;26.67;100272.19;7393666;19;20497;-81
2024/04/10 02:36:32;;;;;;;6.35;0.80;;;;;;;26.17;26.93;100284.97;7395597;19;20477;-81
2024/04/10 02:38:58;;;;;;;0.82;0.82;;;;;;;26.06;26.90;100293.91;7393425;19;20022;-81
2024/04/10 02:41:24;;;;;;;0.30;0.30;;;;;;;25.98;26.85;100288.22;7393600;19;20018;-81
2024/04/10 02:43:50;;;;;;;2.35;0.65;;;;;;;25.97;26.70;100303.81;7391972;19;20042;-81
2024/04/10 02:46:16;;;;;;;0.60;0.60;;;;;;;25.64;27.27;100307.06;7390687;19;20014;-81
2024/04/10 02:48:44;;;;;;;0.50;0.50;;;;;;;25.92;26.82;100299.06;7394232;19;20345;-81
2024/04/10 02:51:10;;;;;;;0.50;0.50;;;;;;;25.71;26.77;100301.34;7391647;19;20571;-81
2024/04/10 02:53:36;;;;;;;1.23;0.60;;;;;;;25.62;26.98;100301.16;7393077;19;20056;-81
2024/04/10 02:56:02;;;;;;;0.63;0.63;;;;;;;25.18;27.38;100294.78;7391215;19;20018;-80
2024/04/10 02:58:28;;;;;;;0.40;0.40;;;;;;;25.52;26.90;100301.72;7392146;19;20495;-80
2024/04/10 03:00:56;;;;;;;6.55;0.65;;;;;;;25.01;27.49;100309.59;7389574;19;20018;-80
2024/04/10 03:03:24;;;;;;;0.40;0.40;;;;;;;24.95;27.43;100294.72;7392157;19;20042;-81
2024/04/10 03:06:04;;;;;;;0.50;0.50;;;;;;;25.37;27.30;100293.13;7390327;19;20524;-80
2024/04/10 03:08:31;;;;;;;0.57;0.57;;;;;;;25.28;27.14;100305.09;7389025;19;20018;-80
2024/04/10 03:10:57;;;;;;;0.68;0.68;;;;;;;25.17;27.46;100310.38;7395202;19;20014;-81
2024/04/10 03:13:24;;;;;;;0.50;0.50;;;;;;;25.45;27.05;100308.19;7395910;19;20010;-81
2024/04/10 03:15:51;;;;;;;0.28;0.28;;;;;;;25.33;26.89;100314.78;7392519;19;20110;-80
2024/04/10 03:18:17;;;;;;;0.50;0.50;;;;;;;25.30;26.98;100315.91;7393878;19;20010;-81
2024/04/10 03:20:43;;;;;;;0.22;0.22;;;;;;;25.36;27.35;100319.38;7389271;19;20491;-80
2024/04/10 03:23:10;;;;;;;1.20;1.10;;;;;;;25.34;26.89;100322.00;7393463;19;20014;-80
2024/04/10 03:25:36;;;;;;;0.70;0.70;;;;;;;25.33;27.26;100324.13;7392302;19;20081;-81
2024/04/10 03:28:03;;;;;;;0.20;0.20;;;;;;;25.44;27.35;100328.72;7390104;19;20404;-80
2024/04/10 03:30:29;;;;;;;0.38;0.38;;;;;;;25.55;26.94;100329.09;7391693;19;20018;-80
2024/04/10 03:32:55;;;;;;;0.50;0.50;;;;;;;25.21;27.46;100339.28;7391593;19;20318;-81
2024/04/10 03:35:21;;;;;;;1.27;0.80;;;;;;;25.02;27.76;100336.75;7393713;19;20022;-81
2024/04/10 03:37:47;;;;;;;0.43;0.43;;;;;;;24.94;27.86;100344.50;7390145;19;20030;-80
2024/04/10 03:40:13;;;;;;;0.30;0.30;;;;;;;24.96;27.53;100332.53;7386326;19;20010;-81
2024/04/10 03:42:39;;;;;;;0.70;0.70;;;;;;;24.96;27.69;100341.88;7392422;19;20017;-81
2024/04/10 03:45:06;;;;;;;0.45;0.45;;;;;;;24.90;27.51;100338.44;7390550;19;20019;-81
2024/04/10 03:47:32;;;;;;;0.80;0.80;;;;;;;25.04;27.87;100334.09;7393446;19;20014;-81
2024/04/10 03:49:59;;;;;;;9.30;0.70;;;;;;;24.99;27.88;100346.44;7391063;19;20606;-81
2024/04/10 03:52:25;;;;;;;0.40;0.40;;;;;;;24.98;27.84;100350.59;7389705;19;20014;-81
2024/04/10 03:54:51;;;;;;;0.45;0.45;;;;;;;25.02;27.97;100355.94;7392203;19;20042;-81
2024/04/10 03:57:17;;;;;;;0.47;0.47;;;;;;;25.10;27.85;100354.63;7393025;19;20031;-81
2024/04/10 03:59:43;;;;;;;0.35;0.35;;;;;;;25.08;27.99;100365.84;7388113;19;20510;-80
2024/04/10 04:02:09;;;;;;;2.55;0.75;;;;;;;25.10;27.96;100371.72;7390118;19;20026;-81
2024/04/10 04:04:36;;;;;;;0.43;0.43;;;;;;;25.04;27.90;100371.16;7390419;19;20460;-81
2024/04/10 04:07:02;;;;;;;0.40;0.40;;;;;;;25.28;28.05;100367.81;7389949;19;20390;-81
2024/04/10 04:09:28;;;;;;;0.90;0.68;;;;;;;26.18;26.96;100370.03;7389173;19;20552;-81
2024/04/10 04:11:54;;;;;;;5.90;1.58;;;;;;;25.93;27.31;100351.19;7390786;19;20019;-81
2024/04/10 04:14:20;;;;;;;0.50;0.50;;;;;;;26.14;27.15;100354.66;7389268;19;20019;-80
2024/04/10 04:16:47;;;;;;;0.47;0.47;;;;;;;26.20;27.07;100358.84;7388272;19;20459;-81
2024/04/10 04:19:13;;;;;;;8.27;0.90;;;;;;;26.24;26.93;100364.16;7391775;19;20022;-80
2024/04/10 04:21:39;;;;;;;4.55;0.73;;;;;;;26.25;26.85;100372.13;7390282;19;20025;-81
2024/04/10 04:24:06;;;;;;;2.88;0.80;;;;;;;26.59;26.64;100371.72;7389989;19;20023;-81
2024/04/10 04:26:32;;;;;;;0.95;0.60;;;;;;;26.44;27.21;100383.16;7389166;19;20014;-81
2024/04/10 04:28:58;;;;;;;0.47;0.47;;;;;;;26.45;26.76;100373.25;7391569;19;20073;-81
2024/04/10 04:31:24;;;;;;;0.25;0.25;;;;;;;26.41;26.80;100367.16;7391105;19;20018;-81
2024/04/10 04:33:50;;;;;;;0.25;0.25;;;;;;;26.49;27.00;100378.56;7390155;19;20018;-81
2024/04/10 04:36:16;;;;;;;0.20;0.20;;;;;;;26.51;27.18;100370.94;7389924;19;20015;-81
2024/04/10 04:38:42;;;;;;;1.10;1.02;;;;;;;26.54;27.01;100358.38;7387659;19;20022;-80
2024/04/10 04:41:08;;;;;;;0.20;0.20;;;;;;;26.76;27.08;100374.72;7386675;19;20015;-81
2024/04/10 04:43:34;;;;;;;0.30;0.30;;;;;;;26.70;26.57;100371.31;7387989;19;20011;-81
2024/04/10 04:46:02;;;;;;;0.30;0.30;;;;;;;26.53;26.95;100362.56;7386770;19;20021;-81
2024/04/10 04:48:28;;;;;;;3.00;0.70;;;;;;;26.51;27.03;100365.22;7388037;19;20018;-81
2024/04/10 04:50:55;;;;;;;0.32;0.32;;;;;;;26.29;26.93;100374.63;7390460;19;20042;-81
2024/04/10 04:53:21;;;;;;;2.05;0.50;;;;;;;26.01;27.25;100377.66;7397013;19;20018;-81
2024/04/10 04:55:47;;;;;;;0.30;0.30;;;;;;;25.93;27.66;100376.88;7395523;19;20038;-80
2024/04/10 04:58:13;;;;;;;0.52;0.52;;;;;;;25.97;27.56;100374.41;7393897;19;20022;-81
2024/04/10 05:00:40;;;;;;;0.40;0.40;;;;;;;26.50;27.08;100380.88;7397009;19;20014;-81
2024/04/10 05:03:09;;;;;;;0.40;0.40;;;;;;;27.10;26.44;100385.66;7395173;19;20357;-81
2024/04/10 05:05:36;;;;;;;0.17;0.17;;;;;;;26.89;26.69;100391.66;7396185;19;20041;-81
2024/04/10 05:08:02;;;;;;;0.43;0.43;;;;;;;26.31;27.31;100409.09;7394468;19;20477;-80
2024/04/10 05:10:29;;;;;;;0.30;0.30;;;;;;;26.27;27.19;100402.97;7397528;19;20032;-80
2024/04/10 05:12:56;;;;;;;0.85;0.85;;;;;;;26.30;27.26;100414.03;7398944;19;20114;-81
2024/04/10 05:15:22;;;;;;;0.40;0.40;;;;;;;26.63;26.88;100417.03;7394870;19;20021;-81
2024/04/10 05:17:49;;;;;;;0.40;0.40;;;;;;;26.12;27.22;100418.03;7396083;19;20025;-81
2024/04/10 05:20:15;;;;;;;0.43;0.43;;;;;;;26.45;27.13;100418.97;7395051;19;20010;-80
2024/04/10 05:22:42;;;;;;;0.73;0.50;;;;;;;26.27;27.30;100417.25;7395434;19;20492;-80
2024/04/10 05:25:10;;;;;;;0.55;0.55;;;;;;;26.06;27.79;100416.66;7394832;19;20338;-81
2024/04/10 05:27:37;;;;;;;0.50;0.50;;;;;;;26.68;27.22;100413.97;7395853;19;20073;-80
2024/04/10 05:30:09;;;;;;;0.32;0.32;;;;;;;26.73;26.88;100417.97;7397069;19;20460;-80
2024/04/10 05:32:40;;;;;;;0.20;0.20;;;;;;;26.83;27.10;100425.38;7394846;19;20037;-80
2024/04/10 05:35:09;;;;;;;0.23;0.23;;;;;;;26.74;27.01;100428.84;7395247;19;20026;-80
2024/04/10 05:37:35;;;;;;;0.10;0.10;;;;;;;27.23;26.86;100427.53;7393915;19;20604;-81
2024/04/10 05:40:10;;;;;;;2.15;0.70;;;;;;;27.25;26.76;100427.72;7394045;19;20081;-80
2024/04/10 05:42:37;;;;;;;0.40;0.40;;;;;;;27.50;26.40;100428.59;7395993;19;20038;-80
2024/04/10 05:45:05;;;;;;;0.38;0.38;;;;;;;27.24;26.43;100423.34;7394378;19;20014;-81
2024/04/10 05:47:32;;;;;;;0.77;0.77;;;;;;;27.13;26.88;100418.81;7395555;19;20014;-81
2024/04/10 05:49:58;;;;;;;6.55;0.60;;;;;;;27.24;26.73;100423.34;7396502;19;20018;-81
2024/04/10 05:52:24;;;;;;;1.35;1.20;;;;;;;27.35;26.52;100418.00;7392542;19;20086;-81
2024/04/10 05:54:51;;;;;;;0.73;0.60;;;;;;;27.38;27.02;100433.22;7394584;19;20018;-81
2024/04/10 05:57:17;;;;;;;0.32;0.32;;;;;;;27.50;26.83;100428.59;7395167;19;20022;-80
2024/04/10 05:59:43;;;;;;;1.77;1.13;;;;;;;27.64;26.85;100424.09;7392922;19;20010;-80
2024/04/10 06:02:09;;;;;;;0.47;0.47;;;;;;;27.67;26.85;100423.72;7393792;19;20026;-81
2024/04/10 06:04:36;;;;;;;0.90;0.40;;;;;;;27.77;26.59;100416.03;7395031;19;20536;-81
2024/04/10 06:07:02;;;;;;;1.40;0.40;;;;;;;28.21;26.22;100416.28;7394405;19;20045;-81
2024/04/10 06:09:28;;;;;;;0.28;0.28;;;;;;;27.72;26.77;100421.97;7392050;19;20033;-81
2024/04/10 06:11:54;;;;;;;0.40;0.40;;;;;;;27.58;27.22;100412.13;7394494;19;20026;-80
2024/04/10 06:14:21;;;;;;;1.02;0.90;;;;;;;27.64;27.23;100409.81;7395047;19;20042;-81
2024/04/10 06:16:47;;;;;;;0.57;0.57;;;;;;;27.71;27.40;100406.91;7394056;19;20415;-82
2024/04/10 06:19:13;;;;;;;0.52;0.52;;;;;;;28.00;27.14;100410.16;7397110;19;20006;-80
2024/04/10 06:21:39;;;;;;;0.57;0.40;;;;;;;27.89;27.16;100412.69;7398043;19;20010;-80
2024/04/10 06:24:05;;;;;;;0.28;0.28;;;;;;;27.93;27.19;100413.03;7393844;19;20035;-80
2024/04/10 06:26:31;;;;;;;0.80;0.55;;;;;;;27.98;27.48;100420.69;7392920;19;20489;-80
2024/04/10 06:28:57;;;;;;;6.97;0.82;;;;;;;27.83;27.27;100409.31;7388988;19;20014;-80
2024/04/10 06:31:23;;;;;;;0.55;0.55;;;;;;;27.92;27.52;100420.88;7397095;19;20495;-80
2024/04/10 06:33:50;;;;;;;0.57;0.57;;;;;;;27.82;27.93;100411.41;7393744;19;20532;-80
2024/04/10 06:36:16;;;;;;;0.47;0.40;;;;;;;27.78;27.94;100408.19;7391717;19;20025;-80
2024/04/10 06:38:42;;;;;;;0.15;0.15;;;;;;;27.81;27.66;100412.00;7390351;19;20023;-81
2024/04/10 06:41:08;;;;;;;0.50;0.50;;;;;;;27.94;28.21;100412.44;7395353;19;20026;-81
2024/04/10 06:43:34;;;;;;;0.73;0.70;;;;;;;27.92;27.94;100412.28;7393736;19;20048;-80
2024/04/10 06:46:11;;;;;;;18.40;0.75;;;;;;;27.95;27.95;100411.13;7392757;19;20007;-81
2024/04/10 06:48:39;;;;;;;1.95;0.82;;;;;;;27.91;28.08;100410.78;7394944;19;20022;-80
2024/04/10 06:51:06;;;;;;;0.60;0.60;;;;;;;27.72;28.21;100416.25;7396667;19;20494;-81
2024/04/10 06:53:33;;;;;;;0.32;0.32;;;;;;;28.09;28.35;100415.22;7393118;19;20069;-80
2024/04/10 06:56:03;;;;;;;0.43;0.43;;;;;;;28.13;28.40;100412.72;7393036;19;20358;-81
2024/04/10 06:58:34;;;;;;;0.65;0.65;;;;;;;27.88;28.95;100403.34;7391961;19;20105;-81
2024/04/10 07:01:04;;;;;;;0.20;0.20;;;;;;;28.04;28.98;100406.88;7394490;19;20026;-80
2024/04/10 07:03:31;;;;;;;3.50;1.23;;;;;;;28.04;28.64;100410.50;7395217;19;20022;-81
2024/04/10 07:06:04;;;;;;;1.98;1.58;;;;;;;28.16;28.34;100417.28;7393395;19;20019;-80
2024/04/10 07:08:35;;;;;;;20.38;1.00;;;;;;;28.57;28.18;100412.91;7389638;19;20094;-80
2024/04/10 07:11:04;;;;;;;;;;;;;;;28.69;28.02;100407.47;7395021;19;20539;-80
2024/04/10 07:13:33;;;;;;;0.63;0.40;;;;;;;28.61;28.26;100401.06;7396342;19;19929;-81
2024/04/10 07:16:01;;;;;;;0.20;0.20;;;;;;;28.54;27.90;100414.81;7390844;19;20010;-81
2024/04/10 07:18:29;;;;;;;0.47;0.47;;;;;;;28.62;27.95;100414.78;7393736;19;20019;-81
2024/04/10 07:21:03;;;;;;;5.15;0.93;;;;;;;28.74;28.33;100417.91;7393194;19;20028;-81
2024/04/10 07:23:31;;;;;;;2.55;0.43;;;;;;;29.16;28.00;100418.59;7392141;19;20014;-81
2024/04/10 07:26:12;;;;;;;0.28;0.28;;;;;;;29.32;27.97;100422.81;7392707;19;20011;-81
2024/04/10 07:28:43;;;;;;;1.15;0.57;;;;;;;29.58;27.85;100413.44;7389996;19;20472;-81
2024/04/10 07:31:16;;;;;;;0.30;0.30;;;;;;;29.76;27.58;100414.91;7393893;19;20081;-81
2024/04/10 07:33:42;;;;;;;0.15;0.15;;;;;;;30.10;27.81;100408.28;7391102;19;20018;-81
2024/04/10 07:36:14;;;;;;;1.02;0.63;;;;;;;30.38;27.69;100401.13;7389134;19;20086;-81
2024/04/10 07:38:41;;;;;;;0.30;0.20;;;;;;;30.44;27.83;100396.59;7388679;19;20365;-81
2024/04/10 07:41:08;;;;;;;0.43;0.43;;;;;;;30.39;27.65;100399.75;7387237;19;20019;-81
2024/04/10 07:43:35;;;;;;;0.10;0.10;;;;;;;29.97;28.46;100412.28;7394128;19;20041;-81
2024/04/10 07:46:18;;;;;;;3.55;0.98;;;;;;;29.75;28.14;100407.66;7388864;19;20030;-81
2024/04/10 07:48:48;;;;;;;0.75;0.65;;;;;;;29.73;28.44;100401.75;7391571;19;20464;-81
2024/04/10 07:51:15;;;;;;;0.40;0.40;;;;;;;29.70;28.68;100405.03;7390879;19;20480;-80
2024/04/10 07:53:42;;;;;;;1.13;0.55;;;;;;;29.79;28.30;100405.13;7390666;19;20018;-81
2024/04/10 07:56:09;;;;;;;1.55;0.55;;;;;;;29.96;27.88;100392.78;7395328;19;20026;-81
2024/04/10 07:58:37;;;;;;;3.45;1.02;;;;;;;30.25;27.67;100401.50;7390010;19;20022;-80
2024/04/10 08:01:03;;;;;;;6.93;0.73;;;;;;;30.23;28.01;100395.59;7389398;19;20018;-81
2024/04/10 08:03:30;;;;;;;3.33;0.85;;;;;;;30.33;27.71;100397.16;7391240;19;20046;-82
2024/04/10 08:05:58;;;;;;;0.35;0.32;;;;;;;30.53;28.20;100406.59;7391713;19;20026;-81
2024/04/10 08:08:25;;;;;;;0.20;0.20;;;;;;;30.55;27.85;100401.00;7390178;19;20041;-81
2024/04/10 08:11:21;;;;;;;3.05;0.55;;;;;;;30.71;27.88;100402.19;7390646;19;20010;-81
2024/04/10 08:13:47;;;;;;;2.75;0.50;;;;;;;31.02;27.49;100399.50;7393179;19;20094;-81
2024/04/10 08:16:14;;;;;;;1.40;0.98;;;;;;;31.38;27.42;100400.06;7390452;19;20014;-81
2024/04/10 08:18:42;;;;;;;1.25;0.47;;;;;;;31.35;27.27;100401.31;7391960;19;20025;-81
2024/04/10 08:21:09;;;;;;;1.88;0.50;;;;;;;31.46;27.16;100399.94;7386840;19;20018;-81
2024/04/10 08:23:37;;;;;;;1.50;0.57;;;;;;;31.42;27.19;100405.41;7390506;19;20072;-81
2024/04/10 08:26:17;;;;;;;0.20;0.20;;;;;;;31.21;27.36;100388.75;7388511;19;20011;-81
2024/04/10 08:28:52;;;;;;;11.52;0.90;;;;;;;31.11;27.39;100388.00;7390747;19;20349;-81
2024/04/10 08:31:27;;;;;;;0.63;0.63;;;;;;;31.20;27.62;100383.59;7389307;19;20014;-81
2024/04/10 08:33:54;;;;;;;0.20;0.20;;;;;;;31.35;27.52;100389.03;7390367;19;20022;-81
2024/04/10 08:36:21;;;;;;;0.63;0.55;;;;;;;31.60;27.25;100391.59;7389375;19;20018;-81
2024/04/10 08:38:48;;;;;;;1.75;0.90;;;;;;;31.54;27.08;100383.25;7386581;19;20026;-80
2024/04/10 08:41:15;;;;;;;6.43;1.25;;;;;;;31.49;26.98;100392.22;7388059;19;20010;-82
2024/04/10 08:43:43;;;;;;;0.95;0.25;;;;;;;31.24;27.35;100384.66;7388191;19;20018;-81
2024/04/10 08:46:10;;;;;;;1.90;0.75;;;;;;;31.53;26.76;100380.97;7390215;19;20021;-81
2024/04/10 08:48:38;;;;;;;1.35;0.38;;;;;;;31.87;27.17;100380.56;7388960;19;20086;-81
2024/04/10 08:51:10;;;;;;;4.20;0.70;;;;;;;31.43;27.17;100378.13;7388039;19;20018;-81
2024/04/10 08:53:39;;;;;;;0.32;0.32;;;;;;;31.28;27.48;100376.31;7390037;19;20040;-81
2024/04/10 08:56:05;;;;;;;0.20;0.20;;;;;;;31.34;27.07;100376.75;7387152;19;20039;-81
2024/04/10 08:58:31;;;;;;;0.17;0.10;;;;;;;31.41;27.48;100370.09;7385515;19;20018;-81
2024/04/10 09:00:59;;;;;;;0.88;0.88;;;;;;;31.38;27.47;100371.28;7388109;19;20054;-81
2024/04/10 09:03:25;;;;;;;0.80;0.40;;;;;;;31.55;27.62;100373.25;7389984;19;20098;-81
2024/04/10 09:05:51;;;;;;;3.55;0.40;;;;;;;31.42;27.59;100371.59;7388315;19;20021;-81
2024/04/10 09:08:17;;;;;;;11.48;0.68;;;;;;;31.26;27.66;100373.28;7386007;19;20018;-81
2024/04/10 09:10:53;;;;;;;4.80;0.68;;;;;;;31.47;27.98;100371.91;7389665;19;20023;-81
2024/04/10 09:13:19;;;;;;;0.57;0.40;;;;;;;31.55;27.69;100378.25;7391361;19;20352;-81
2024/04/10 09:15:46;;;;;;;0.47;0.47;;;;;;;31.70;27.83;100375.78;7387763;19;20017;-80
2024/04/10 09:18:12;;;;;;;2.00;0.45;;;;;;;31.77;28.23;100382.72;7389355;19;20045;-81
2024/04/10 09:20:39;;;;;;;0.60;0.60;;;;;;;31.85;28.06;100377.53;7385709;19;20176;-81
2024/04/10 09:23:08;;;;;;;5.88;1.10;;;;;;;31.75;28.21;100373.94;7389460;19;20023;-81
2024/04/10 09:25:35;;;;;;;1.25;0.30;;;;;;;31.80;27.69;100378.59;7388140;19;20019;-81
2024/04/10 09:28:03;;;;;;;11.95;1.52;;;;;;;31.99;27.91;100378.53;7385740;19;20011;-82
2024/04/10 09:30:37;;;;;;;0.90;0.60;;;;;;;32.07;28.05;100384.88;7387743;19;20353;-82
2024/04/10 09:33:07;;;;;;;0.93;0.47;;;;;;;32.22;28.08;100381.63;7393250;19;20042;-81
2024/04/10 09:35:34;;;;;;;2.63;0.93;;;;;;;32.38;27.83;100382.72;7389906;19;20019;-81
2024/04/10 09:38:03;;;;;;;4.05;1.23;;;;;;;32.21;27.76;100382.22;7389695;19;20272;-81
2024/04/10 09:40:30;;;;;;;17.48;3.35;;;;;;;32.33;27.65;100383.84;7393156;19;20591;-81
2024/04/10 09:43:03;;;;;;;5.22;2.63;;;;;;;32.42;27.90;100383.00;7395565;19;20015;-81
2024/04/10 09:45:53;;;;;;;3.17;1.17;;;;;;;32.58;28.08;100386.25;7395468;19;20014;-81
2024/04/10 09:48:22;;;;;;;9.93;2.03;;;;;;;32.70;27.97;100387.81;7394181;19;20345;-81
2024/04/10 09:50:50;;;;;;;4.03;0.80;;;;;;;32.30;28.32;100385.06;7392536;19;20030;-81
2024/04/10 09:53:19;;;;;;;3.88;0.68;;;;;;;32.11;28.27;100388.06;7394051;19;20042;-81
2024/04/10 09:55:45;;;;;;;5.93;1.08;;;;;;;32.11;27.88;100385.94;7396580;19;20023;-81
2024/04/10 09:58:12;;;;;;;0.30;0.30;;;;;;;31.88;28.22;100382.06;7393042;19;20010;-81
2024/04/10 10:00:38;;;;;;;4.05;0.85;;;;;;;31.77;28.56;100376.97;7390749;19;20015;-81
2024/04/10 10:03:06;;;;;;;0.82;0.50;;;;;;;31.79;28.12;100374.22;7392819;19;20018;-82
2024/04/10 10:05:33;;;;;;;0.20;0.20;;;;;;;32.00;28.32;100371.41;7392797;19;20019;-81
2024/04/10 10:08:11;;;;;;;0.40;0.20;;;;;;;31.94;27.99;100362.31;7397596;19;20014;-81
2024/04/10 10:10:52;;;;;;;11.93;1.15;;;;;;;32.06;28.85;100360.31;7393442;19;20308;-81
2024/04/10 10:13:41;;;;;;;1.85;0.88;;;;;;;32.25;28.31;100354.44;7397846;19;20037;-81
2024/04/10 10:16:08;;;;;;;0.65;0.55;;;;;;;32.22;28.10;100347.03;7393982;19;20018;-81
2024/04/10 10:18:35;;;;;;;0.10;0.10;;;;;;;32.24;28.03;100350.03;7393244;19;20011;-81
2024/04/10 10:21:09;;;;;;;3.80;1.65;;;;;;;32.86;27.71;100348.53;7396597;19;20018;-81
2024/04/10 10:23:36;;;;;;;2.35;1.13;;;;;;;32.27;27.78;100343.03;7395675;19;20010;-81
2024/04/10 10:26:03;;;;;;;1.17;0.20;;;;;;;32.17;28.38;100333.69;7398112;19;20018;-81
2024/04/10 10:28:29;;;;;;;0.20;0.20;;;;;;;32.28;28.45;100338.78;7396052;19;20074;-81
2024/04/10 10:31:11;;;;;;;3.70;0.80;;;;;;;32.00;28.20;100336.84;7398406;19;20014;-82
2024/04/10 10:33:38;;;;;;;6.43;0.50;;;;;;;31.94;28.38;100337.19;7392919;19;20039;-81
2024/04/10 10:36:04;;;;;;;0.10;0.10;;;;;;;32.01;28.29;100323.94;7393818;19;20010;-80
2024/04/10 10:38:31;;;;;;;7.68;0.75;;;;;;;31.69;28.36;100325.28;7393555;19;20021;-82
2024/04/10 10:41:08;;;;;;;7.70;0.35;;;;;;;31.58;28.82;100323.06;7389090;19;20085;-82
2024/04/10 10:43:35;;;;;;;0.10;0.10;;;;;;;31.39;28.96;100320.97;7392989;19;20029;-83
2024/04/10 10:46:03;;;;;;;0.15;0.15;;;;;;;31.24;28.81;100309.06;7393464;19;20010;-84
2024/04/10 10:48:30;;;;;;;0.10;0.10;;;;;;;31.25;28.91;100305.56;7391774;19;20018;-84
2024/04/10 10:50:57;;;;;;;0.10;0.10;;;;;;;31.12;28.97;100308.19;7391760;19;20362;-82
2024/04/10 10:53:24;;;;;;;2.20;0.30;;;;;;;30.88;28.94;100307.19;7393751;19;20014;-82
2024/04/10 10:55:51;;;;;;;0.10;0.10;;;;;;;30.93;29.11;100294.59;7391559;19;20026;-83
2024/04/10 10:58:17;;;;;;;3.33;0.68;;;;;;;30.69;29.62;100301.41;7390942;19;20467;-82
2024/04/10 11:00:43;;;;;;;1.65;0.30;;;;;;;30.80;29.97;100303.66;7391764;19;20029;-83
2024/04/10 11:03:11;;;;;;;4.50;1.50;;;;;;;30.84;30.08;100301.06;7393413;19;20018;-82
2024/04/10 11:05:38;;;;;;;1.85;0.57;;;;;;;30.91;29.99;100300.19;7392493;19;20026;-83
2024/04/10 11:08:05;;;;;;;3.03;0.63;;;;;;;30.92;29.94;100301.72;7391615;19;20035;-83
2024/04/10 11:10:31;;;;;;;6.22;0.57;;;;;;;30.83;29.64;100304.56;7396004;19;20354;-82
2024/04/10 11:13:04;;;;;;;2.92;1.33;;;;;;;30.68;30.36;100305.66;7395610;19;20362;-83
2024/04/10 11:15:59;;;;;;;0.50;0.50;;;;;;;30.39;30.40;100302.00;7392674;19;20039;-83
2024/04/10 11:18:26;;;;;;;1.45;0.47;;;;;;;30.26;30.42;100293.78;7391599;19;20018;-83
2024/04/10 11:20:52;;;;;;;0.75;0.73;;;;;;;30.19;30.25;100286.09;7389078;19;20015;-84
2024/04/10 11:23:19;;;;;;;1.17;0.45;;;;;;;29.95;30.75;100282.88;7389939;19;20042;-84
2024/04/10 11:25:46;;;;;;;0.22;0.22;;;;;;;29.85;30.92;100278.47;7391429;19;20010;-84